sensor_id;sensor_type;location;lat;lon;timestamp;pressure;altitude;pressure_sealevel;temperature;humidity
2401;BME280;1211;43.200;27.914;2023-02-05T01:25:01;101019.94;;;3.19;nan
2401;BME280;1211;43.200;27.914;2023-02-05T01:27:27;101039.25;;;3.18;nan
2401;BME280;1211;43.200;27.914;2023-02-05T01:29:54;101027.53;;;3.17;nan
2401;BME280;1211;43.200;27.914;2023-02-05T01:32:21;101016.66;;;3.12;nan
2401;BME280;1211;43.200;27.914;2023-02-05T01:34:47;101036.00;;;3.16;nan
2401;BME280;1211;43.200;27.914;2023-02-05T01:37:14;101044.94;;;3.11;nan
2401;BME280;1211;43.200;27.914;2023-02-05T01:39:41;101029.16;;;3.08;nan
2401;BME280;1211;43.200;27.914;2023-02-05T01:42:14;101019.63;;;2.96;nan
2401;BME280;1211;43.200;27.914;2023-02-05T01:44:42;101029.16;;;3.28;nan
2401;BME280;1211;43.200;27.914;2023-02-05T01:47:08;101010.13;;;3.03;nan
2401;BME280;1211;43.200;27.914;2023-02-05T01:49:35;101020.19;;;3.03;nan
2401;BME280;1211;43.200;27.914;2023-02-05T01:52:04;101025.91;;;3.37;nan
2401;BME280;1211;43.200;27.914;2023-02-05T01:54:32;101019.38;;;2.97;nan
2401;BME280;1211;43.200;27.914;2023-02-05T01:57:02;100114.81;;;-2.70;nan
2401;BME280;1211;43.200;27.914;2023-02-05T01:59:32;100974.75;;;3.08;nan
2401;BME280;1211;43.200;27.914;2023-02-05T02:01:59;101008.50;;;3.12;nan
2401;BME280;1211;43.200;27.914;2023-02-05T02:04:29;101018.28;;;3.28;nan
2401;BME280;1211;43.200;27.914;2023-02-05T02:07:00;101023.16;;;3.06;nan
2401;BME280;1211;43.200;27.914;2023-02-05T02:09:27;101009.31;;;3.08;nan
2401;BME280;1211;43.200;27.914;2023-02-05T02:11:53;101032.72;;;3.29;nan
2401;BME280;1211;43.200;27.914;2023-02-05T02:14:22;101029.47;;;3.27;nan
2401;BME280;1211;43.200;27.914;2023-02-05T02:16:50;101019.63;;;3.06;nan
2401;BME280;1211;43.200;27.914;2023-02-05T02:19:21;101039.22;;;2.98;nan
2401;BME280;1211;43.200;27.914;2023-02-05T02:22:03;101043.84;;;2.97;nan
2401;BME280;1211;43.200;27.914;2023-02-05T02:27:36;101009.56;;;2.86;nan
2401;BME280;1211;43.200;27.914;2023-02-05T02:30:04;101036.19;;;2.89;nan
2401;BME280;1211;43.200;27.914;2023-02-05T02:32:35;101031.56;;;2.79;nan
2401;BME280;1211;43.200;27.914;2023-02-05T02:35:04;101031.00;;;2.82;nan
2401;BME280;1211;43.200;27.914;2023-02-05T02:37:33;101030.72;;;2.69;nan
2401;BME280;1211;43.200;27.914;2023-02-05T02:40:05;101050.28;;;2.61;nan
2401;BME280;1211;43.200;27.914;2023-02-05T02:42:34;101059.34;;;2.86;nan
2401;BME280;1211;43.200;27.914;2023-02-05T02:45:06;101055.72;;;2.71;nan
2401;BME280;1211;43.200;27.914;2023-02-05T02:47:34;101062.22;;;2.60;nan
2401;BME280;1211;43.200;27.914;2023-02-05T02:50:04;101066.59;;;2.71;nan
2401;BME280;1211;43.200;27.914;2023-02-05T02:52:33;101034.28;;;2.69;nan
2401;BME280;1211;43.200;27.914;2023-02-05T02:55:02;101050.34;;;2.81;nan
2401;BME280;1211;43.200;27.914;2023-02-05T02:57:32;101052.22;;;2.70;nan
2401;BME280;1211;43.200;27.914;2023-02-05T07:48:30;101480.97;;;3.28;nan
2401;BME280;1211;43.200;27.914;2023-02-05T07:50:56;101440.16;;;3.28;nan
2401;BME280;1211;43.200;27.914;2023-02-05T07:53:23;101472.44;;;4.04;nan
2401;BME280;1211;43.200;27.914;2023-02-05T07:55:50;101484.75;;;3.59;nan
2401;BME280;1211;43.200;27.914;2023-02-05T07:58:17;101362.03;;;2.82;nan
2401;BME280;1211;43.200;27.914;2023-02-05T08:00:44;101335.94;;;2.86;nan
2401;BME280;1211;43.200;27.914;2023-02-05T08:03:10;101205.13;;;2.08;nan
2401;BME280;1211;43.200;27.914;2023-02-05T08:05:39;101113.47;;;1.89;nan
2401;BME280;1211;43.200;27.914;2023-02-05T08:08:05;100718.81;;;-0.09;nan
2401;BME280;1211;43.200;27.914;2023-02-05T08:10:32;99637.28;;;-6.38;nan
2401;BME280;1211;43.200;27.914;2023-02-05T08:12:59;100995.25;;;2.23;nan
2401;BME280;1211;43.200;27.914;2023-02-05T08:15:26;101232.94;;;4.18;nan
2401;BME280;1211;43.200;27.914;2023-02-05T08:17:53;101102.16;;;3.57;nan
2401;BME280;1211;43.200;27.914;2023-02-05T08:20:19;100236.75;;;-1.20;nan
2401;BME280;1211;43.200;27.914;2023-02-05T08:22:48;100565.25;;;0.91;nan
2401;BME280;1211;43.200;27.914;2023-02-05T08:25:15;100492.63;;;1.03;nan
2401;BME280;1211;43.200;27.914;2023-02-05T08:27:42;100213.19;;;-0.67;nan
2401;BME280;1211;43.200;27.914;2023-02-05T08:30:11;100586.13;;;2.12;nan
2401;BME280;1211;43.200;27.914;2023-02-05T08:32:38;101063.31;;;4.41;nan
2401;BME280;1211;43.200;27.914;2023-02-05T08:35:05;101038.78;;;4.90;nan
2401;BME280;1211;43.200;27.914;2023-02-05T08:37:32;100638.31;;;1.84;nan
2401;BME280;1211;43.200;27.914;2023-02-05T08:40:00;100335.13;;;0.39;nan
2401;BME280;1211;43.200;27.914;2023-02-05T08:42:27;100232.22;;;-0.22;nan
2401;BME280;1211;43.200;27.914;2023-02-05T08:44:53;100617.25;;;3.14;nan
2401;BME280;1211;43.200;27.914;2023-02-05T08:47:22;100377.31;;;2.05;nan
2401;BME280;1211;43.200;27.914;2023-02-05T08:49:49;100091.72;;;0.12;nan
2401;BME280;1211;43.200;27.914;2023-02-05T08:52:16;100754.34;;;4.45;nan
2401;BME280;1211;43.200;27.914;2023-02-05T08:54:43;100548.09;;;3.20;nan
2401;BME280;1211;43.200;27.914;2023-02-05T08:57:12;100834.78;;;4.82;nan
2401;BME280;1211;43.200;27.914;2023-02-05T08:59:40;100867.16;;;5.46;nan
2401;BME280;1211;43.200;27.914;2023-02-05T09:02:08;100680.13;;;3.52;nan
2401;BME280;1211;43.200;27.914;2023-02-05T09:04:35;101199.25;;;6.25;nan
2401;BME280;1211;43.200;27.914;2023-02-05T09:07:02;101069.19;;;5.56;nan
2401;BME280;1211;43.200;27.914;2023-02-05T09:09:30;100969.63;;;4.17;nan
2401;BME280;1211;43.200;27.914;2023-02-05T09:11:59;100810.50;;;2.28;nan
2401;BME280;1211;43.200;27.914;2023-02-05T09:14:27;101249.31;;;5.32;nan
2401;BME280;1211;43.200;27.914;2023-02-05T09:17:00;100731.97;;;2.32;nan
2401;BME280;1211;43.200;27.914;2023-02-05T09:19:27;101134.06;;;4.81;nan
2401;BME280;1211;43.200;27.914;2023-02-05T09:21:53;100350.78;;;0.12;nan
2401;BME280;1211;43.200;27.914;2023-02-05T09:24:20;100465.75;;;1.07;nan
2401;BME280;1211;43.200;27.914;2023-02-05T09:26:47;99987.69;;;-1.37;nan
2401;BME280;1211;43.200;27.914;2023-02-05T09:29:14;100862.09;;;3.19;nan
2401;BME280;1211;43.200;27.914;2023-02-05T09:31:42;100720.22;;;2.72;nan
2401;BME280;1211;43.200;27.914;2023-02-05T09:34:09;100868.75;;;4.22;nan
2401;BME280;1211;43.200;27.914;2023-02-05T09:36:35;100921.31;;;4.27;nan
2401;BME280;1211;43.200;27.914;2023-02-05T09:39:03;100854.56;;;4.64;nan
2401;BME280;1211;43.200;27.914;2023-02-05T09:41:31;100666.66;;;2.72;nan
2401;BME280;1211;43.200;27.914;2023-02-05T09:44:03;100681.75;;;1.94;nan
2401;BME280;1211;43.200;27.914;2023-02-05T09:46:34;100817.00;;;3.72;nan
2401;BME280;1211;43.200;27.914;2023-02-05T09:49:07;100958.91;;;5.18;nan
2401;BME280;1211;43.200;27.914;2023-02-05T09:51:40;101484.63;;;7.90;nan
2401;BME280;1211;43.200;27.914;2023-02-05T09:54:10;100667.59;;;3.07;nan
2401;BME280;1211;43.200;27.914;2023-02-05T09:56:38;101372.94;;;6.67;nan
2401;BME280;1211;43.200;27.914;2023-02-05T09:59:05;100565.53;;;1.86;nan
2401;BME280;1211;43.200;27.914;2023-02-05T10:01:35;101058.88;;;4.55;nan
2401;BME280;1211;43.200;27.914;2023-02-05T10:04:07;100937.72;;;4.71;nan
2401;BME280;1211;43.200;27.914;2023-02-05T10:06:45;101181.84;;;6.16;nan
2401;BME280;1211;43.200;27.914;2023-02-05T10:09:20;100808.50;;;3.20;nan
2401;BME280;1211;43.200;27.914;2023-02-05T10:11:54;100915.31;;;4.74;nan
2401;BME280;1211;43.200;27.914;2023-02-05T10:14:26;101436.16;;;7.33;nan
2401;BME280;1211;43.200;27.914;2023-02-05T10:17:01;101350.34;;;8.22;nan
2401;BME280;1211;43.200;27.914;2023-02-05T10:19:53;101416.56;;;7.44;nan
2401;BME280;1211;43.200;27.914;2023-02-05T10:22:25;101383.97;;;6.56;nan
2401;BME280;1211;43.200;27.914;2023-02-05T10:25:03;100918.13;;;3.30;nan
2401;BME280;1211;43.200;27.914;2023-02-05T10:27:34;101556.13;;;7.70;nan
2401;BME280;1211;43.200;27.914;2023-02-05T10:30:05;101517.38;;;7.53;nan
2401;BME280;1211;43.200;27.914;2023-02-05T10:32:39;101563.75;;;6.56;nan
2401;BME280;1211;43.200;27.914;2023-02-05T10:35:16;101538.03;;;7.01;nan
2401;BME280;1211;43.200;27.914;2023-02-05T10:37:46;101576.22;;;7.89;nan
2401;BME280;1211;43.200;27.914;2023-02-05T10:40:15;100757.03;;;3.28;nan
2401;BME280;1211;43.200;27.914;2023-02-05T10:42:43;101423.66;;;6.88;nan
2401;BME280;1211;43.200;27.914;2023-02-05T10:45:13;101305.22;;;7.06;nan
2401;BME280;1211;43.200;27.914;2023-02-05T10:47:46;101382.84;;;7.20;nan
2401;BME280;1211;43.200;27.914;2023-02-05T10:50:17;101697.22;;;8.50;nan
2401;BME280;1211;43.200;27.914;2023-02-05T10:52:46;101437.00;;;6.60;nan
2401;BME280;1211;43.200;27.914;2023-02-05T10:55:13;101408.44;;;6.38;nan
2401;BME280;1211;43.200;27.914;2023-02-05T10:57:40;101144.47;;;4.74;nan
2401;BME280;1211;43.200;27.914;2023-02-05T11:00:12;101157.31;;;4.64;nan
2401;BME280;1211;43.200;27.914;2023-02-05T11:02:41;100801.53;;;0.78;nan
2401;BME280;1211;43.200;27.914;2023-02-05T11:05:13;100913.03;;;1.76;nan
2401;BME280;1211;43.200;27.914;2023-02-05T11:07:44;101047.91;;;2.89;nan
2401;BME280;1211;43.200;27.914;2023-02-05T11:10:12;101221.47;;;4.26;nan
2401;BME280;1211;43.200;27.914;2023-02-05T11:12:41;101163.44;;;3.95;nan
2401;BME280;1211;43.200;27.914;2023-02-05T11:15:16;101299.63;;;5.11;nan
2401;BME280;1211;43.200;27.914;2023-02-05T11:17:43;100322.81;;;-0.97;nan
2401;BME280;1211;43.200;27.914;2023-02-05T11:20:20;100590.84;;;0.48;nan
2401;BME280;1211;43.200;27.914;2023-02-05T11:22:49;101247.59;;;4.67;nan
2401;BME280;1211;43.200;27.914;2023-02-05T11:25:29;100361.03;;;-1.52;nan
2401;BME280;1211;43.200;27.914;2023-02-05T11:27:57;100661.09;;;0.70;nan
2401;BME280;1211;43.200;27.914;2023-02-05T11:30:25;101247.06;;;4.50;nan
2401;BME280;1211;43.200;27.914;2023-02-05T11:32:52;101368.31;;;5.49;nan
2401;BME280;1211;43.200;27.914;2023-02-05T11:35:20;100926.00;;;2.41;nan
2401;BME280;1211;43.200;27.914;2023-02-05T11:37:47;101382.88;;;5.09;nan
2401;BME280;1211;43.200;27.914;2023-02-05T11:40:21;101285.78;;;4.17;nan
2401;BME280;1211;43.200;27.914;2023-02-05T11:42:53;101104.88;;;3.97;nan
2401;BME280;1211;43.200;27.914;2023-02-05T11:45:22;101281.09;;;5.67;nan
2401;BME280;1211;43.200;27.914;2023-02-05T11:47:51;101309.75;;;5.06;nan
2401;BME280;1211;43.200;27.914;2023-02-05T11:50:20;101238.09;;;4.24;nan
2401;BME280;1211;43.200;27.914;2023-02-05T11:52:47;101077.03;;;2.99;nan
2401;BME280;1211;43.200;27.914;2023-02-05T11:55:23;97948.78;;;-17.03;nan
2401;BME280;1211;43.200;27.914;2023-02-05T11:57:56;101106.69;;;2.33;nan
2401;BME280;1211;43.200;27.914;2023-02-05T12:00:24;101179.25;;;2.33;nan
2401;BME280;1211;43.200;27.914;2023-02-05T12:02:52;101184.63;;;2.70;nan
2401;BME280;1211;43.200;27.914;2023-02-05T12:05:27;100911.38;;;0.86;nan
2401;BME280;1211;43.200;27.914;2023-02-05T12:07:57;101104.59;;;2.51;nan
2401;BME280;1211;43.200;27.914;2023-02-05T12:10:29;101166.84;;;2.47;nan
2401;BME280;1211;43.200;27.914;2023-02-05T12:13:02;101409.94;;;3.72;nan
2401;BME280;1211;43.200;27.914;2023-02-05T12:15:33;101361.03;;;4.23;nan
2401;BME280;1211;43.200;27.914;2023-02-05T12:18:04;101215.53;;;3.06;nan
2401;BME280;1211;43.200;27.914;2023-02-05T12:20:36;101778.28;;;6.09;nan
2401;BME280;1211;43.200;27.914;2023-02-05T12:23:09;101313.47;;;3.06;nan
2401;BME280;1211;43.200;27.914;2023-02-05T12:25:44;100802.56;;;-0.24;nan
2401;BME280;1211;43.200;27.914;2023-02-05T12:28:17;100801.78;;;-0.68;nan
2401;BME280;1211;43.200;27.914;2023-02-05T12:30:54;100761.69;;;-1.36;nan
2401;BME280;1211;43.200;27.914;2023-02-05T12:33:28;101166.50;;;0.67;nan
2401;BME280;1211;43.200;27.914;2023-02-05T12:36:03;101314.59;;;1.55;nan
2401;BME280;1211;43.200;27.914;2023-02-05T12:38:37;101453.84;;;2.70;nan
2401;BME280;1211;43.200;27.914;2023-02-05T12:41:14;101398.72;;;2.47;nan
2401;BME280;1211;43.200;27.914;2023-02-05T12:43:45;101493.38;;;3.09;nan
2401;BME280;1211;43.200;27.914;2023-02-05T12:46:19;101471.44;;;3.26;nan
2401;BME280;1211;43.200;27.914;2023-02-05T12:48:59;101349.72;;;2.16;nan
2401;BME280;1211;43.200;27.914;2023-02-05T12:51:34;101326.94;;;1.90;nan
2401;BME280;1211;43.200;27.914;2023-02-05T12:54:13;101821.38;;;5.15;nan
2401;BME280;1211;43.200;27.914;2023-02-05T12:56:53;101569.81;;;3.71;nan
2401;BME280;1211;43.200;27.914;2023-02-05T12:59:23;101141.44;;;1.26;nan
2401;BME280;1211;43.200;27.914;2023-02-05T13:01:54;101321.16;;;2.13;nan
2401;BME280;1211;43.200;27.914;2023-02-05T13:04:24;101377.88;;;2.31;nan
2401;BME280;1211;43.200;27.914;2023-02-05T13:06:53;101406.59;;;2.22;nan
2401;BME280;1211;43.200;27.914;2023-02-05T13:09:24;100909.09;;;-0.68;nan
2401;BME280;1211;43.200;27.914;2023-02-05T13:11:57;101370.88;;;1.87;nan
2401;BME280;1211;43.200;27.914;2023-02-05T13:14:27;101384.63;;;1.37;nan
2401;BME280;1211;43.200;27.914;2023-02-05T13:16:58;101208.28;;;0.33;nan
2401;BME280;1211;43.200;27.914;2023-02-05T13:19:27;101307.34;;;0.62;nan
2401;BME280;1211;43.200;27.914;2023-02-05T13:21:58;101203.38;;;-0.04;nan
2401;BME280;1211;43.200;27.914;2023-02-05T13:24:44;101126.94;;;-0.44;nan
2401;BME280;1211;43.200;27.914;2023-02-05T13:27:31;101255.69;;;0.52;nan
2401;BME280;1211;43.200;27.914;2023-02-05T13:30:32;101166.47;;;-0.10;nan
2401;BME280;1211;43.200;27.914;2023-02-05T13:33:02;101159.09;;;-0.31;nan
2401;BME280;1211;43.200;27.914;2023-02-05T13:35:31;101133.81;;;-0.53;nan
2401;BME280;1211;43.200;27.914;2023-02-05T13:38:09;101060.91;;;-1.10;nan
2401;BME280;1211;43.200;27.914;2023-02-05T13:40:54;101474.16;;;1.53;nan
2401;BME280;1211;43.200;27.914;2023-02-05T13:43:44;101204.50;;;0.34;nan
2401;BME280;1211;43.200;27.914;2023-02-05T13:46:21;101168.34;;;-0.27;nan
2401;BME280;1211;43.200;27.914;2023-02-05T13:48:58;100491.81;;;-4.90;nan
2401;BME280;1211;43.200;27.914;2023-02-05T13:51:40;100358.13;;;-5.46;nan
2401;BME280;1211;43.200;27.914;2023-02-05T13:54:19;100560.34;;;-4.06;nan
2401;BME280;1211;43.200;27.914;2023-02-05T13:56:51;100563.63;;;-4.16;nan
2401;BME280;1211;43.200;27.914;2023-02-05T13:59:24;101198.59;;;-0.30;nan
2401;BME280;1211;43.200;27.914;2023-02-05T14:01:54;100672.19;;;-3.58;nan
2401;BME280;1211;43.200;27.914;2023-02-05T14:04:22;100973.56;;;-1.72;nan
2401;BME280;1211;43.200;27.914;2023-02-05T14:06:55;101116.28;;;-1.24;nan
2401;BME280;1211;43.200;27.914;2023-02-05T14:09:23;101226.28;;;-0.39;nan
2401;BME280;1211;43.200;27.914;2023-02-05T14:11:54;101157.03;;;-0.69;nan
2401;BME280;1211;43.200;27.914;2023-02-05T14:14:25;100902.47;;;-2.06;nan
2401;BME280;1211;43.200;27.914;2023-02-05T14:16:52;100796.44;;;-3.15;nan
2401;BME280;1211;43.200;27.914;2023-02-05T14:19:20;100631.38;;;-4.37;nan
2401;BME280;1211;43.200;27.914;2023-02-05T14:24:41;100870.41;;;-3.52;nan
2401;BME280;1211;43.200;27.914;2023-02-05T14:29:55;100931.44;;;-2.65;nan
2401;BME280;1211;43.200;27.914;2023-02-05T14:35:09;101163.69;;;-1.05;nan
2401;BME280;1211;43.200;27.914;2023-02-05T14:37:52;101143.28;;;-1.24;nan
2401;BME280;1211;43.200;27.914;2023-02-05T14:40:22;101421.63;;;0.14;nan
2401;BME280;1211;43.200;27.914;2023-02-05T14:42:51;101693.56;;;1.45;nan
2401;BME280;1211;43.200;27.914;2023-02-05T14:45:21;101582.31;;;1.00;nan
2401;BME280;1211;43.200;27.914;2023-02-05T14:47:48;101748.69;;;1.90;nan
2401;BME280;1211;43.200;27.914;2023-02-05T14:50:17;101744.97;;;1.80;nan
2401;BME280;1211;43.200;27.914;2023-02-05T14:52:45;101781.66;;;2.11;nan
2401;BME280;1211;43.200;27.914;2023-02-05T14:55:16;101724.47;;;1.72;nan
2401;BME280;1211;43.200;27.914;2023-02-05T14:57:45;101785.00;;;1.84;nan
2401;BME280;1211;43.200;27.914;2023-02-05T15:00:21;101749.84;;;1.49;nan
2401;BME280;1211;43.200;27.914;2023-02-05T15:02:53;101852.56;;;1.97;nan
2401;BME280;1211;43.200;27.914;2023-02-05T15:05:27;101895.72;;;2.39;nan
2401;BME280;1211;43.200;27.914;2023-02-05T15:08:00;101506.56;;;-0.04;nan
2401;BME280;1211;43.200;27.914;2023-02-05T15:10:29;101311.38;;;-1.22;nan
2401;BME280;1211;43.200;27.914;2023-02-05T15:13:02;101200.56;;;-1.85;nan
2401;BME280;1211;43.200;27.914;2023-02-05T15:15:31;101514.19;;;0.11;nan
2401;BME280;1211;43.200;27.914;2023-02-05T15:18:09;101116.88;;;-2.43;nan
2401;BME280;1211;43.200;27.914;2023-02-05T15:20:38;101401.97;;;-0.85;nan
2401;BME280;1211;43.200;27.914;2023-02-05T15:23:12;101393.50;;;-0.76;nan
2401;BME280;1211;43.200;27.914;2023-02-05T15:25:40;101124.44;;;-2.64;nan
2401;BME280;1211;43.200;27.914;2023-02-05T15:28:15;101268.06;;;-1.50;nan
2401;BME280;1211;43.200;27.914;2023-02-05T15:30:49;101239.28;;;-1.68;nan
2401;BME280;1211;43.200;27.914;2023-02-05T15:33:20;100760.22;;;-4.53;nan
2401;BME280;1211;43.200;27.914;2023-02-05T15:35:50;101049.06;;;-2.82;nan
2401;BME280;1211;43.200;27.914;2023-02-05T15:38:25;100544.44;;;-6.27;nan
2401;BME280;1211;43.200;27.914;2023-02-05T15:40:53;101176.75;;;-2.41;nan
2401;BME280;1211;43.200;27.914;2023-02-05T15:43:20;101068.84;;;-3.29;nan
2401;BME280;1211;43.200;27.914;2023-02-05T15:45:50;101117.84;;;-2.79;nan
2401;BME280;1211;43.200;27.914;2023-02-05T15:48:18;101227.19;;;-1.66;nan
2401;BME280;1211;43.200;27.914;2023-02-05T15:50:50;100987.25;;;-3.30;nan
2401;BME280;1211;43.200;27.914;2023-02-05T15:53:20;101184.25;;;-2.02;nan
2401;BME280;1211;43.200;27.914;2023-02-05T15:55:52;101798.00;;;1.42;nan
2401;BME280;1211;43.200;27.914;2023-02-05T15:58:19;101000.84;;;-3.85;nan
2401;BME280;1211;43.200;27.914;2023-02-05T16:00:47;101919.13;;;1.83;nan
2401;BME280;1211;43.200;27.914;2023-02-05T16:03:24;101856.88;;;1.53;nan
2401;BME280;1211;43.200;27.914;2023-02-05T16:05:52;101713.59;;;0.75;nan
2401;BME280;1211;43.200;27.914;2023-02-05T16:08:20;101549.16;;;-0.57;nan
2401;BME280;1211;43.200;27.914;2023-02-05T16:10:51;101317.69;;;-2.16;nan
2401;BME280;1211;43.200;27.914;2023-02-05T16:13:22;101565.28;;;-0.62;nan
2401;BME280;1211;43.200;27.914;2023-02-05T16:15:50;101391.34;;;-1.56;nan
2401;BME280;1211;43.200;27.914;2023-02-05T16:18:19;100936.44;;;-4.28;nan
2401;BME280;1211;43.200;27.914;2023-02-05T16:20:54;101700.78;;;0.36;nan
2401;BME280;1211;43.200;27.914;2023-02-05T16:23:24;101678.28;;;0.00;nan
2401;BME280;1211;43.200;27.914;2023-02-05T16:25:54;101906.78;;;1.52;nan
2401;BME280;1211;43.200;27.914;2023-02-05T16:28:25;101977.16;;;2.05;nan
2401;BME280;1211;43.200;27.914;2023-02-05T16:30:55;101969.78;;;1.78;nan
2401;BME280;1211;43.200;27.914;2023-02-05T16:33:24;101978.13;;;1.99;nan
2401;BME280;1211;43.200;27.914;2023-02-05T16:35:54;101930.81;;;1.84;nan
2401;BME280;1211;43.200;27.914;2023-02-05T16:38:23;101870.59;;;0.89;nan
2401;BME280;1211;43.200;27.914;2023-02-05T16:40:53;101490.34;;;-1.50;nan
2401;BME280;1211;43.200;27.914;2023-02-05T16:43:29;101517.97;;;-1.36;nan
2401;BME280;1211;43.200;27.914;2023-02-05T16:46:20;101362.31;;;-2.32;nan
2401;BME280;1211;43.200;27.914;2023-02-05T16:48:48;101336.94;;;-2.42;nan
2401;BME280;1211;43.200;27.914;2023-02-05T16:57:08;101132.91;;;-4.11;nan
2401;BME280;1211;43.200;27.914;2023-02-05T16:59:38;101174.59;;;-3.77;nan
2401;BME280;1211;43.200;27.914;2023-02-05T17:02:14;101248.28;;;-3.35;nan
2401;BME280;1211;43.200;27.914;2023-02-05T17:04:47;101731.00;;;-0.55;nan
2401;BME280;1211;43.200;27.914;2023-02-05T17:07:17;101576.22;;;-1.40;nan
2401;BME280;1211;43.200;27.914;2023-02-05T17:09:44;101751.63;;;-0.13;nan
2401;BME280;1211;43.200;27.914;2023-02-05T17:12:33;101837.44;;;0.28;nan
2401;BME280;1211;43.200;27.914;2023-02-05T17:15:08;101824.44;;;0.19;nan
2401;BME280;1211;43.200;27.914;2023-02-05T17:17:51;101999.84;;;1.06;nan
2401;BME280;1211;43.200;27.914;2023-02-05T17:20:19;101730.81;;;-0.42;nan
2401;BME280;1211;43.200;27.914;2023-02-05T17:25:34;101415.13;;;-2.42;nan
2401;BME280;1211;43.200;27.914;2023-02-05T17:28:02;101693.00;;;-0.60;nan
2401;BME280;1211;43.200;27.914;2023-02-05T17:30:29;101817.75;;;0.21;nan
2401;BME280;1211;43.200;27.914;2023-02-05T17:32:57;101589.25;;;-1.55;nan
2401;BME280;1211;43.200;27.914;2023-02-05T17:35:24;101195.22;;;-3.71;nan
2401;BME280;1211;43.200;27.914;2023-02-05T17:37:51;101784.59;;;0.08;nan
2401;BME280;1211;43.200;27.914;2023-02-05T17:40:18;101718.72;;;-0.69;nan
2401;BME280;1211;43.200;27.914;2023-02-05T17:42:45;101795.72;;;-0.24;nan
2401;BME280;1211;43.200;27.914;2023-02-05T17:45:13;101728.72;;;-0.70;nan
2401;BME280;1211;43.200;27.914;2023-02-05T17:47:41;101367.78;;;-2.75;nan
2401;BME280;1211;43.200;27.914;2023-02-05T17:50:10;101387.25;;;-2.55;nan
2401;BME280;1211;43.200;27.914;2023-02-05T17:52:37;101355.13;;;-2.93;nan
2401;BME280;1211;43.200;27.914;2023-02-05T17:55:04;101349.00;;;-3.00;nan
2401;BME280;1211;43.200;27.914;2023-02-05T17:57:31;101444.25;;;-2.51;nan
2401;BME280;1211;43.200;27.914;2023-02-05T17:59:59;101407.47;;;-2.64;nan
2401;BME280;1211;43.200;27.914;2023-02-05T18:02:26;101942.69;;;0.55;nan
2401;BME280;1211;43.200;27.914;2023-02-05T18:04:52;101931.88;;;0.66;nan
2401;BME280;1211;43.200;27.914;2023-02-05T18:07:23;101765.97;;;-0.90;nan
2401;BME280;1211;43.200;27.914;2023-02-05T18:09:50;101812.16;;;-0.25;nan
2401;BME280;1211;43.200;27.914;2023-02-05T18:12:17;101809.38;;;-0.49;nan
2401;BME280;1211;43.200;27.914;2023-02-05T18:14:44;101895.69;;;0.19;nan
2401;BME280;1211;43.200;27.914;2023-02-05T18:17:10;101917.59;;;0.29;nan
2401;BME280;1211;43.200;27.914;2023-02-05T18:19:37;101901.34;;;0.29;nan
2401;BME280;1211;43.200;27.914;2023-02-05T18:22:04;101885.41;;;0.10;nan
2401;BME280;1211;43.200;27.914;2023-02-05T18:24:32;101922.84;;;0.13;nan
2401;BME280;1211;43.200;27.914;2023-02-05T18:27:01;101412.22;;;-3.02;nan
2401;BME280;1211;43.200;27.914;2023-02-05T18:29:28;101234.09;;;-4.17;nan
2401;BME280;1211;43.200;27.914;2023-02-05T18:31:55;101367.41;;;-3.21;nan
2401;BME280;1211;43.200;27.914;2023-02-05T18:34:21;101627.16;;;-1.62;nan
2401;BME280;1211;43.200;27.914;2023-02-05T18:36:48;101493.72;;;-2.64;nan
2401;BME280;1211;43.200;27.914;2023-02-05T18:39:15;101883.34;;;-0.07;nan
2401;BME280;1211;43.200;27.914;2023-02-05T18:41:43;101411.63;;;-2.86;nan
2401;BME280;1211;43.200;27.914;2023-02-05T18:44:10;101082.44;;;-4.83;nan
2401;BME280;1211;43.200;27.914;2023-02-05T18:46:37;100966.53;;;-5.55;nan
2401;BME280;1211;43.200;27.914;2023-02-05T18:49:04;101155.13;;;-4.47;nan
2401;BME280;1211;43.200;27.914;2023-02-05T18:51:30;101174.78;;;-4.22;nan
2401;BME280;1211;43.200;27.914;2023-02-05T18:53:57;100643.00;;;-7.67;nan
2401;BME280;1211;43.200;27.914;2023-02-05T18:56:24;101129.28;;;-4.48;nan
2401;BME280;1211;43.200;27.914;2023-02-05T18:58:53;101119.97;;;-4.70;nan
2401;BME280;1211;43.200;27.914;2023-02-05T19:01:23;101240.81;;;-3.76;nan
2401;BME280;1211;43.200;27.914;2023-02-05T19:03:50;101342.44;;;-3.10;nan
2401;BME280;1211;43.200;27.914;2023-02-05T19:06:19;101413.75;;;-2.70;nan
2401;BME280;1211;43.200;27.914;2023-02-05T19:08:46;101295.34;;;-3.44;nan
2401;BME280;1211;43.200;27.914;2023-02-05T19:11:13;101236.56;;;-3.90;nan
2401;BME280;1211;43.200;27.914;2023-02-05T19:13:40;101385.28;;;-3.02;nan
2401;BME280;1211;43.200;27.914;2023-02-05T19:16:10;101338.16;;;-3.36;nan
2401;BME280;1211;43.200;27.914;2023-02-05T19:18:37;101287.34;;;-3.51;nan
2401;BME280;1211;43.200;27.914;2023-02-05T19:21:04;101154.72;;;-4.44;nan
2401;BME280;1211;43.200;27.914;2023-02-05T19:23:31;101208.19;;;-4.36;nan
2401;BME280;1211;43.200;27.914;2023-02-05T19:26:00;101305.84;;;-3.61;nan
2401;BME280;1211;43.200;27.914;2023-02-05T19:28:27;101362.44;;;-3.18;nan
2401;BME280;1211;43.200;27.914;2023-02-05T19:30:54;101441.16;;;-2.73;nan
2401;BME280;1211;43.200;27.914;2023-02-05T19:33:22;101475.41;;;-2.19;nan
2401;BME280;1211;43.200;27.914;2023-02-05T19:35:49;101312.38;;;-3.25;nan
2401;BME280;1211;43.200;27.914;2023-02-05T19:38:16;101369.84;;;-3.13;nan
2401;BME280;1211;43.200;27.914;2023-02-05T19:40:42;101454.66;;;-2.55;nan
2401;BME280;1211;43.200;27.914;2023-02-05T19:43:09;101242.88;;;-3.78;nan
2401;BME280;1211;43.200;27.914;2023-02-05T19:45:41;101196.88;;;-4.20;nan
2401;BME280;1211;43.200;27.914;2023-02-05T19:48:08;100949.34;;;-5.78;nan
2401;BME280;1211;43.200;27.914;2023-02-05T19:50:36;100740.75;;;-6.82;nan
2401;BME280;1211;43.200;27.914;2023-02-05T19:53:03;101275.69;;;-3.45;nan
2401;BME280;1211;43.200;27.914;2023-02-05T19:55:30;101126.94;;;-4.63;nan
2401;BME280;1211;43.200;27.914;2023-02-05T19:57:57;100896.34;;;-6.14;nan
2401;BME280;1211;43.200;27.914;2023-02-05T20:00:24;100864.25;;;-6.21;nan
2401;BME280;1211;43.200;27.914;2023-02-05T20:02:51;100638.47;;;-7.67;nan
2401;BME280;1211;43.200;27.914;2023-02-05T20:05:18;100954.25;;;-5.75;nan
2401;BME280;1211;43.200;27.914;2023-02-05T20:07:48;100961.81;;;-5.59;nan
2401;BME280;1211;43.200;27.914;2023-02-05T20:10:15;101005.16;;;-5.31;nan
2401;BME280;1211;43.200;27.914;2023-02-05T20:12:41;100919.06;;;-5.86;nan
2401;BME280;1211;43.200;27.914;2023-02-05T20:15:09;101177.91;;;-4.25;nan
2401;BME280;1211;43.200;27.914;2023-02-05T20:17:35;101313.16;;;-3.43;nan